createdAt,value
2023-07-22T00:00:31.017Z,12.18
2023-07-22T00:02:59.028Z,12.23
2023-07-22T00:05:27.096Z,12.20
2023-07-22T00:07:56.204Z,12.18
2023-07-22T00:10:23.946Z,12.31
2023-07-22T00:12:52.128Z,12.23
2023-07-22T00:15:21.574Z,12.22
2023-07-22T00:17:49.473Z,12.24
2023-07-22T00:20:17.733Z,12.24
2023-07-22T00:22:45.495Z,12.20
2023-07-22T00:25:14.884Z,12.26
2023-07-22T00:27:44.752Z,12.29
2023-07-22T00:30:13.058Z,12.29
2023-07-22T00:32:42.341Z,12.35
2023-07-22T00:35:11.335Z,12.32
2023-07-22T00:37:39.103Z,12.27
2023-07-22T00:40:13.198Z,12.25
2023-07-22T00:42:42.805Z,12.22
2023-07-22T00:45:10.798Z,12.14
2023-07-22T00:47:39.153Z,12.14
2023-07-22T00:50:09.822Z,12.09
2023-07-22T00:52:37.804Z,12.14
2023-07-22T00:55:07.091Z,12.10
2023-07-22T00:57:34.950Z,12.08
2023-07-22T01:00:05.926Z,12.07
2023-07-22T01:02:35.818Z,12.07
2023-07-22T01:05:03.895Z,12.02
2023-07-22T01:07:31.661Z,11.97
2023-07-22T01:10:00.335Z,11.94
2023-07-22T01:12:28.129Z,11.98
2023-07-22T01:14:56.025Z,11.94
2023-07-22T01:17:25.900Z,11.91
2023-07-22T01:19:55.087Z,11.89
2023-07-22T01:22:24.894Z,11.84
2023-07-22T01:24:54.625Z,11.82
2023-07-22T01:27:22.479Z,11.87
2023-07-22T01:29:53.545Z,11.84
2023-07-22T01:32:22.131Z,11.79
2023-07-22T01:34:49.944Z,11.75
2023-07-22T01:37:17.733Z,11.77
2023-07-22T01:39:45.570Z,11.72
2023-07-22T01:42:14.720Z,11.68
2023-07-22T01:44:42.646Z,11.71
2023-07-22T01:47:10.471Z,11.74
2023-07-22T01:49:38.249Z,11.74
2023-07-22T01:52:06.907Z,11.67
2023-07-22T01:54:34.628Z,11.65
2023-07-22T01:57:02.393Z,11.66
2023-07-22T01:59:31.597Z,11.63
2023-07-22T02:01:59.402Z,11.61
2023-07-22T02:04:27.528Z,11.67
2023-07-22T02:06:55.573Z,11.65
2023-07-22T02:09:23.390Z,11.62
2023-07-22T02:11:51.160Z,11.64
2023-07-22T02:14:18.961Z,11.58
2023-07-22T02:16:48.366Z,11.61
2023-07-22T02:19:16.671Z,11.59
2023-07-22T02:21:44.484Z,11.67
2023-07-22T02:24:12.551Z,11.58
2023-07-22T02:26:40.399Z,11.56
2023-07-22T02:29:14.100Z,11.52
2023-07-22T02:31:46.138Z,11.54
2023-07-22T02:34:17.638Z,11.54
2023-07-22T02:36:45.774Z,11.60
2023-07-22T02:39:13.612Z,11.66
2023-07-22T02:41:41.701Z,11.64
2023-07-22T02:44:10.186Z,11.64
2023-07-22T02:46:38.197Z,11.67
2023-07-22T02:49:06.341Z,11.63
2023-07-22T02:51:35.555Z,11.61
2023-07-22T02:54:04.773Z,11.65
2023-07-22T02:56:32.675Z,11.72
2023-07-22T02:59:00.484Z,11.80
2023-07-22T03:01:28.419Z,11.82
2023-07-22T03:03:56.214Z,11.83
2023-07-22T03:06:24.020Z,11.94
2023-07-22T03:08:55.549Z,11.91
2023-07-22T03:11:26.137Z,11.87
2023-07-22T03:13:54.721Z,11.88
2023-07-22T03:16:22.652Z,11.90
2023-07-22T03:18:50.462Z,11.93
2023-07-22T03:21:19.313Z,11.99
2023-07-22T03:23:47.164Z,11.97
2023-07-22T03:26:16.645Z,11.99
2023-07-22T03:28:44.486Z,12.01
2023-07-22T03:31:12.414Z,12.03
2023-07-22T03:33:41.156Z,12.11
2023-07-22T03:36:09.009Z,12.25
2023-07-22T03:38:37.056Z,12.30
2023-07-22T03:41:05.204Z,12.38
2023-07-22T03:43:34.346Z,12.43
2023-07-22T03:46:02.179Z,12.46
2023-07-22T03:48:30.039Z,12.52
2023-07-22T03:51:12.116Z,12.61
2023-07-22T03:53:44.598Z,12.64
2023-07-22T03:56:12.345Z,12.76
2023-07-22T03:58:41.465Z,12.81
2023-07-22T04:01:09.287Z,12.85
2023-07-22T04:03:37.283Z,12.92
2023-07-22T04:06:05.617Z,12.96
2023-07-22T04:08:33.683Z,13.00
2023-07-22T04:11:01.474Z,13.07
2023-07-22T04:13:29.474Z,13.21
2023-07-22T04:15:58.690Z,13.29
2023-07-22T04:18:26.587Z,13.19
2023-07-22T04:20:58.530Z,13.39
2023-07-22T04:23:26.846Z,13.62
2023-07-22T04:25:54.814Z,13.68
2023-07-22T04:28:22.662Z,13.74
2023-07-22T04:30:59.457Z,13.80
2023-07-22T04:33:28.154Z,13.89
2023-07-22T04:35:57.731Z,13.94
2023-07-22T04:38:25.545Z,13.93
2023-07-22T04:40:53.660Z,13.96
2023-07-22T04:43:23.252Z,14.07
2023-07-22T04:45:51.379Z,14.12
2023-07-22T04:48:24.307Z,14.33
2023-07-22T04:50:52.226Z,14.35
2023-07-22T04:53:20.298Z,14.46
2023-07-22T04:55:48.235Z,14.47
2023-07-22T04:58:16.051Z,14.41
2023-07-22T05:00:44.565Z,14.46
2023-07-22T05:03:12.636Z,14.55
2023-07-22T05:05:41.970Z,14.65
2023-07-22T05:08:09.902Z,14.74
2023-07-22T05:10:39.094Z,14.84
2023-07-22T05:13:06.964Z,14.84
2023-07-22T05:15:34.755Z,15.07
2023-07-22T05:18:02.633Z,14.95
2023-07-22T05:20:30.460Z,15.23
2023-07-22T05:23:00.978Z,15.11
2023-07-22T05:25:28.834Z,15.15
2023-07-22T05:27:56.695Z,15.21
2023-07-22T05:30:34.115Z,15.38
2023-07-22T05:33:02.581Z,15.53
2023-07-22T05:35:31.138Z,15.60
2023-07-22T05:38:00.530Z,15.64
2023-07-22T05:40:28.394Z,15.72
2023-07-22T05:42:56.322Z,15.77
2023-07-22T05:45:24.143Z,15.74
2023-07-22T05:47:51.976Z,15.80
2023-07-22T05:50:19.792Z,15.78
2023-07-22T05:52:48.952Z,15.83
2023-07-22T05:55:18.269Z,16.04
2023-07-22T05:57:46.065Z,16.01
2023-07-22T06:00:15.156Z,16.27
2023-07-22T06:02:43.236Z,16.21
2023-07-22T06:05:11.170Z,16.21
2023-07-22T06:07:39.015Z,16.18
2023-07-22T06:10:08.207Z,16.24
2023-07-22T06:12:38.119Z,16.33
2023-07-22T06:15:06.745Z,16.41
2023-07-22T06:17:34.822Z,16.39
2023-07-22T06:20:03.557Z,16.46
2023-07-22T06:22:31.288Z,16.60
2023-07-22T06:24:59.252Z,16.66
2023-07-22T06:27:27.177Z,16.84
2023-07-22T06:29:56.360Z,16.77
2023-07-22T06:32:24.342Z,16.81
2023-07-22T06:34:52.238Z,16.77
2023-07-22T06:37:20.105Z,17.16
2023-07-22T06:39:47.893Z,17.49
2023-07-22T06:42:15.893Z,17.86
2023-07-22T06:44:43.731Z,18.14
2023-07-22T06:47:12.878Z,18.04
2023-07-22T06:49:42.060Z,17.77
2023-07-22T06:52:10.866Z,17.14
2023-07-22T06:54:38.668Z,17.06
2023-07-22T06:57:07.331Z,17.32
2023-07-22T06:59:35.202Z,17.45
2023-07-22T07:02:05.851Z,17.56
2023-07-22T07:04:35.377Z,17.46
2023-07-22T07:07:03.749Z,17.31
2023-07-22T07:09:31.581Z,17.13
2023-07-22T07:11:59.383Z,16.93
2023-07-22T07:14:27.141Z,16.73
2023-07-22T07:16:55.077Z,16.98
2023-07-22T07:19:23.194Z,17.09
2023-07-22T07:21:52.341Z,16.95
2023-07-22T07:24:20.195Z,16.86
2023-07-22T07:26:48.352Z,16.87
2023-07-22T07:29:32.903Z,17.28
2023-07-22T07:32:04.423Z,17.56
2023-07-22T07:34:32.340Z,17.95
2023-07-22T07:37:01.457Z,18.14
2023-07-22T07:39:29.257Z,18.28
2023-07-22T07:41:57.139Z,18.61
2023-07-22T07:44:25.089Z,18.50
2023-07-22T07:46:52.875Z,18.39
2023-07-22T07:49:20.740Z,18.22
2023-07-22T07:51:48.709Z,17.98
2023-07-22T07:54:18.132Z,18.30
2023-07-22T07:56:45.961Z,18.49
2023-07-22T07:59:13.793Z,18.57
2023-07-22T08:01:43.124Z,18.53
2023-07-22T08:04:11.838Z,18.49
2023-07-22T08:06:39.833Z,18.65
2023-07-22T08:09:07.593Z,18.94
2023-07-22T08:11:36.740Z,19.09
2023-07-22T08:14:04.725Z,18.93
2023-07-22T08:16:32.567Z,18.76
2023-07-22T08:19:00.334Z,18.87
2023-07-22T08:21:28.092Z,19.10
2023-07-22T08:23:56.006Z,19.23
2023-07-22T08:26:23.782Z,19.37
2023-07-22T08:28:52.881Z,19.50
2023-07-22T08:31:20.668Z,19.27
2023-07-22T08:33:48.612Z,19.13
2023-07-22T08:36:16.659Z,19.23
2023-07-22T08:38:44.520Z,19.14
2023-07-22T08:41:17.174Z,18.95
2023-07-22T08:43:47.172Z,19.11
2023-07-22T08:46:17.945Z,19.15
2023-07-22T08:48:49.721Z,19.23
2023-07-22T08:51:19.442Z,19.42
2023-07-22T08:54:00.895Z,19.63
2023-07-22T08:56:37.090Z,19.70
2023-07-22T08:59:07.066Z,19.95
2023-07-22T09:01:37.151Z,19.91
2023-07-22T09:04:05.975Z,19.84
2023-07-22T09:06:34.655Z,20.18
2023-07-22T09:09:08.004Z,20.64
2023-07-22T09:11:37.117Z,20.88
2023-07-22T09:14:05.349Z,20.75
2023-07-22T09:16:34.431Z,20.59
2023-07-22T09:19:05.673Z,20.92
2023-07-22T09:21:36.920Z,21.49
2023-07-22T09:24:22.835Z,21.92
2023-07-22T09:26:50.978Z,22.44
2023-07-22T09:29:19.256Z,22.55
2023-07-22T09:31:54.487Z,22.72
2023-07-22T09:34:24.009Z,23.15
2023-07-22T09:36:54.231Z,23.35
2023-07-22T09:39:22.240Z,22.94
2023-07-22T09:41:50.253Z,23.00
2023-07-22T09:44:18.322Z,23.47
2023-07-22T09:46:50.135Z,24.28
2023-07-22T09:49:19.834Z,25.15
2023-07-22T09:52:01.939Z,25.57
2023-07-22T09:54:31.961Z,26.41
2023-07-22T09:57:00.450Z,26.79
2023-07-22T09:59:31.318Z,26.60
2023-07-22T10:02:03.731Z,25.93
2023-07-22T10:04:35.719Z,26.28
2023-07-22T10:07:06.008Z,26.00
2023-07-22T10:09:37.577Z,25.72
2023-07-22T10:12:05.924Z,25.19
2023-07-22T10:14:36.987Z,25.46
2023-07-22T10:17:07.419Z,24.70
2023-07-22T10:19:35.353Z,25.13
2023-07-22T10:22:05.822Z,26.44
2023-07-22T10:24:45.431Z,27.18
2023-07-22T10:27:14.149Z,27.97
2023-07-22T10:29:42.117Z,28.64
2023-07-22T10:32:10.219Z,29.89
2023-07-22T10:34:38.004Z,30.05
2023-07-22T10:37:07.520Z,29.37
2023-07-22T10:39:35.348Z,27.50
2023-07-22T10:42:05.580Z,26.90
2023-07-22T10:44:34.783Z,27.24
2023-07-22T10:47:04.773Z,28.75
2023-07-22T10:49:46.241Z,28.93
2023-07-22T10:52:15.888Z,27.88
2023-07-22T10:54:43.822Z,27.29
2023-07-22T10:57:30.302Z,26.78
2023-07-22T10:59:58.536Z,27.64
2023-07-22T11:02:27.875Z,28.35
2023-07-22T11:04:59.589Z,28.91
2023-07-22T11:07:36.629Z,29.75
2023-07-22T11:10:17.455Z,29.95
2023-07-22T11:12:46.845Z,28.36
2023-07-22T11:15:17.532Z,26.85
2023-07-22T11:17:45.396Z,26.93
2023-07-22T11:20:13.383Z,28.15
2023-07-22T11:22:44.845Z,28.21
2023-07-22T11:25:19.257Z,28.46
2023-07-22T11:27:47.587Z,28.40
2023-07-22T11:30:15.558Z,29.76
2023-07-22T11:32:45.589Z,30.82
2023-07-22T11:35:13.429Z,31.02
2023-07-22T11:37:43.229Z,31.35
2023-07-22T11:40:15.073Z,31.32
2023-07-22T11:42:43.044Z,32.05
2023-07-22T11:45:11.511Z,32.65
2023-07-22T11:47:39.651Z,32.23
2023-07-22T11:50:08.869Z,31.52
2023-07-22T11:52:36.704Z,31.43
2023-07-22T11:55:06.623Z,31.76
2023-07-22T11:57:34.467Z,30.37
2023-07-22T12:00:02.316Z,28.67
2023-07-22T12:02:31.041Z,27.79
2023-07-22T12:05:01.421Z,26.45
2023-07-22T12:07:30.900Z,25.29
2023-07-22T12:10:01.008Z,25.57
2023-07-22T12:12:37.340Z,27.26
2023-07-22T12:15:07.767Z,28.22
2023-07-22T12:17:49.662Z,28.95
2023-07-22T12:20:18.246Z,29.73
2023-07-22T12:22:46.742Z,29.85
2023-07-22T12:25:15.174Z,30.73
2023-07-22T12:27:45.813Z,31.31
2023-07-22T12:30:13.846Z,31.88
2023-07-22T12:32:41.737Z,31.91
2023-07-22T12:35:10.063Z,30.21
2023-07-22T12:37:38.359Z,30.83
2023-07-22T12:40:09.666Z,31.80
2023-07-22T12:42:38.110Z,32.43
2023-07-22T12:45:09.071Z,33.77
2023-07-22T12:47:38.214Z,34.13
2023-07-22T12:50:08.803Z,33.33
2023-07-22T12:52:36.788Z,31.99
2023-07-22T12:55:05.225Z,30.49
2023-07-22T12:57:32.979Z,29.31
2023-07-22T13:00:00.743Z,28.38
2023-07-22T13:02:29.943Z,27.58
2023-07-22T13:04:57.989Z,26.98
2023-07-22T13:07:25.801Z,28.56
2023-07-22T13:09:57.664Z,30.73
2023-07-22T13:12:25.525Z,32.12
2023-07-22T13:14:53.343Z,33.05
2023-07-22T13:17:21.116Z,33.53
2023-07-22T13:19:50.215Z,31.14
2023-07-22T13:22:18.115Z,29.21
2023-07-22T13:24:46.004Z,27.92
2023-07-22T13:27:13.901Z,28.12
2023-07-22T13:29:41.640Z,27.03
2023-07-22T13:32:10.070Z,26.41
2023-07-22T13:34:37.906Z,25.80
2023-07-22T13:37:07.725Z,24.77
2023-07-22T13:39:35.763Z,24.49
2023-07-22T13:42:03.724Z,25.96
2023-07-22T13:44:32.025Z,27.15
2023-07-22T13:46:59.982Z,27.08
2023-07-22T13:49:27.940Z,26.91
2023-07-22T13:51:55.773Z,26.87
2023-07-22T13:54:24.950Z,26.39
2023-07-22T13:56:52.764Z,25.88
2023-07-22T13:59:20.528Z,27.20
2023-07-22T14:01:48.349Z,29.01
2023-07-22T14:04:16.172Z,29.96
2023-07-22T14:06:43.913Z,30.75
2023-07-22T14:09:11.717Z,30.58
2023-07-22T14:11:42.739Z,29.92
2023-07-22T14:14:10.630Z,29.24
2023-07-22T14:16:38.532Z,29.08
2023-07-22T14:19:06.415Z,29.33
2023-07-22T14:21:34.176Z,29.11
2023-07-22T14:24:02.055Z,28.93
2023-07-22T14:26:29.883Z,27.56
2023-07-22T14:28:59.029Z,26.95
2023-07-22T14:31:27.415Z,26.53
2023-07-22T14:33:55.454Z,26.60
2023-07-22T14:36:23.306Z,27.72
2023-07-22T14:38:51.057Z,27.88
2023-07-22T14:41:18.951Z,25.96
2023-07-22T14:43:46.743Z,24.72
2023-07-22T14:46:16.107Z,23.90
2023-07-22T14:48:46.184Z,24.09
2023-07-22T14:51:14.033Z,24.37
2023-07-22T14:53:42.183Z,25.36
2023-07-22T14:56:10.040Z,24.73
2023-07-22T14:58:37.817Z,24.21
2023-07-22T15:01:05.645Z,23.13
2023-07-22T15:03:34.816Z,22.35
2023-07-22T15:06:02.695Z,21.62
2023-07-22T15:08:30.547Z,21.10
2023-07-22T15:10:58.556Z,20.59
2023-07-22T15:13:26.484Z,20.36
2023-07-22T15:15:56.022Z,20.13
2023-07-22T15:18:24.037Z,19.92
2023-07-22T15:20:54.226Z,19.63
2023-07-22T15:23:24.713Z,19.36
2023-07-22T15:25:53.124Z,19.23
2023-07-22T15:28:21.862Z,19.12
2023-07-22T15:30:49.752Z,18.87
2023-07-22T15:33:17.973Z,18.78
2023-07-22T15:35:45.799Z,18.95
2023-07-22T15:38:15.008Z,18.98
2023-07-22T15:40:42.854Z,19.17
2023-07-22T15:43:10.816Z,19.46
2023-07-22T15:45:38.808Z,19.76
2023-07-22T15:48:07.111Z,20.31
2023-07-22T15:50:35.027Z,20.75
2023-07-22T15:53:02.956Z,21.45
2023-07-22T15:55:32.267Z,22.10
2023-07-22T15:58:00.157Z,21.98
2023-07-22T16:00:27.975Z,21.52
2023-07-22T16:02:55.924Z,21.22
2023-07-22T16:05:24.164Z,20.84
2023-07-22T16:07:51.967Z,20.65
2023-07-22T16:10:19.876Z,20.53
2023-07-22T16:12:48.993Z,20.49
2023-07-22T16:15:16.882Z,20.67
2023-07-22T16:17:44.993Z,20.87
2023-07-22T16:20:13.714Z,20.90
2023-07-22T16:22:41.575Z,20.85
2023-07-22T16:25:10.511Z,20.64
2023-07-22T16:27:38.272Z,20.40
2023-07-22T16:30:09.780Z,20.25
2023-07-22T16:32:37.694Z,20.10
2023-07-22T16:35:07.632Z,20.00
2023-07-22T16:37:35.834Z,19.72
2023-07-22T16:40:05.559Z,19.26
2023-07-22T16:42:33.368Z,19.21
2023-07-22T16:45:01.465Z,19.34
2023-07-22T16:47:30.653Z,19.44
2023-07-22T16:49:58.556Z,19.35
2023-07-22T16:52:26.483Z,19.20
2023-07-22T16:54:54.227Z,19.08
2023-07-22T16:57:21.963Z,19.07
2023-07-22T16:59:49.881Z,19.03
2023-07-22T17:02:17.712Z,19.07
2023-07-22T17:04:46.886Z,19.15
2023-07-22T17:07:16.054Z,19.10
2023-07-22T17:09:43.890Z,18.96
2023-07-22T17:12:11.716Z,18.82
2023-07-22T17:14:39.520Z,18.56
2023-07-22T17:17:07.978Z,18.48
2023-07-22T17:19:35.759Z,18.22
2023-07-22T17:22:05.403Z,18.09
2023-07-22T17:24:33.293Z,18.03
2023-07-22T17:27:01.140Z,17.95
2023-07-22T17:29:29.054Z,17.93
2023-07-22T17:31:56.857Z,17.74
2023-07-22T17:34:24.698Z,17.78
2023-07-22T17:36:52.467Z,17.74
2023-07-22T17:39:21.574Z,17.75
2023-07-22T17:41:49.391Z,17.64
2023-07-22T17:44:18.774Z,17.73
2023-07-22T17:46:46.641Z,17.81
2023-07-22T17:49:14.578Z,17.76
2023-07-22T17:51:42.326Z,17.76
2023-07-22T17:54:10.380Z,17.81
2023-07-22T17:56:39.590Z,17.81
2023-07-22T17:59:07.392Z,17.79
2023-07-22T18:01:35.417Z,17.88
2023-07-22T18:04:03.324Z,18.08
2023-07-22T18:06:32.258Z,18.09
2023-07-22T18:09:00.098Z,18.09
2023-07-22T18:11:28.296Z,18.00
2023-07-22T18:13:58.532Z,18.03
2023-07-22T18:16:26.578Z,18.06
2023-07-22T18:18:54.728Z,18.01
2023-07-22T18:21:25.971Z,18.00
2023-07-22T18:23:54.038Z,17.97
2023-07-22T18:26:21.841Z,17.97
2023-07-22T18:28:49.681Z,18.00
2023-07-22T18:31:21.004Z,17.96
2023-07-22T18:33:50.099Z,17.99
2023-07-22T18:36:18.028Z,18.01
2023-07-22T18:38:46.423Z,17.90
2023-07-22T18:41:14.679Z,17.82
2023-07-22T18:43:42.448Z,17.81
2023-07-22T18:46:17.895Z,17.79
2023-07-22T18:48:47.737Z,17.73
2023-07-22T18:51:16.176Z,17.69
2023-07-22T18:53:44.090Z,17.70
2023-07-22T18:56:11.855Z,17.59
2023-07-22T18:58:39.616Z,17.58
2023-07-22T19:01:07.489Z,17.57
2023-07-22T19:03:35.378Z,17.49
2023-07-22T19:06:04.676Z,17.46
2023-07-22T19:08:32.577Z,17.42
2023-07-22T19:11:00.399Z,17.33
2023-07-22T19:13:28.150Z,17.25
2023-07-22T19:15:56.585Z,17.18
2023-07-22T19:18:24.414Z,16.99
2023-07-22T19:21:00.014Z,17.00
2023-07-22T19:23:30.102Z,16.88
2023-07-22T19:25:58.897Z,16.83
2023-07-22T19:28:26.885Z,16.67
2023-07-22T19:30:55.724Z,16.71
2023-07-22T19:33:23.634Z,16.62
2023-07-22T19:36:01.523Z,16.58
2023-07-22T19:38:31.123Z,16.57
2023-07-22T19:41:06.724Z,16.45
2023-07-22T19:43:34.826Z,16.41
2023-07-22T19:46:04.274Z,16.30
2023-07-22T19:48:33.429Z,16.18
2023-07-22T19:51:01.754Z,16.13
2023-07-22T19:53:31.171Z,16.01
2023-07-22T19:56:00.705Z,15.92
2023-07-22T19:58:28.582Z,15.87
2023-07-22T20:00:58.657Z,15.77
2023-07-22T20:03:26.549Z,15.65
2023-07-22T20:05:55.102Z,15.57
2023-07-22T20:08:23.051Z,15.54
2023-07-22T20:10:52.937Z,15.53
2023-07-22T20:13:21.404Z,15.52
2023-07-22T20:15:50.570Z,15.46
2023-07-22T20:18:18.456Z,15.43
2023-07-22T20:20:46.279Z,15.38
2023-07-22T20:23:14.047Z,15.37
2023-07-22T20:25:42.014Z,15.30
2023-07-22T20:28:11.185Z,15.28
2023-07-22T20:30:39.101Z,15.31
2023-07-22T20:33:06.975Z,15.29
2023-07-22T20:35:34.878Z,15.28
2023-07-22T20:38:02.895Z,15.23
2023-07-22T20:40:30.746Z,15.21
2023-07-22T20:42:58.585Z,15.18
2023-07-22T20:45:27.748Z,15.16
2023-07-22T20:47:55.847Z,15.13
2023-07-22T20:50:23.724Z,15.13
2023-07-22T20:52:51.514Z,15.09
2023-07-22T20:55:19.357Z,15.06
2023-07-22T20:57:47.225Z,15.08
2023-07-22T21:00:15.741Z,15.09
2023-07-22T21:02:44.940Z,15.05
2023-07-22T21:05:13.145Z,15.02
2023-07-22T21:07:41.369Z,15.01
2023-07-22T21:10:10.603Z,15.00
2023-07-22T21:12:38.413Z,14.99
2023-07-22T21:15:07.401Z,14.97
2023-07-22T21:17:35.182Z,14.95
2023-07-22T21:20:04.810Z,14.97
2023-07-22T21:22:32.929Z,14.94
2023-07-22T21:25:00.718Z,15.04
2023-07-22T21:27:34.533Z,14.92
2023-07-22T21:30:11.478Z,14.93
2023-07-22T21:32:39.305Z,14.91
2023-07-22T21:35:09.139Z,14.80
2023-07-22T21:37:36.978Z,14.79
2023-07-22T21:40:06.508Z,14.76
2023-07-22T21:42:34.303Z,14.77
2023-07-22T21:45:02.900Z,14.70
2023-07-22T21:47:30.720Z,14.65
2023-07-22T21:49:58.729Z,14.61
2023-07-22T21:52:27.904Z,14.59
2023-07-22T21:54:55.870Z,14.54
2023-07-22T21:57:23.708Z,14.53
2023-07-22T21:59:51.505Z,14.47
2023-07-22T22:02:19.464Z,14.42
2023-07-22T22:04:47.422Z,14.40
2023-07-22T22:07:15.322Z,14.36
2023-07-22T22:09:44.549Z,14.33
2023-07-22T22:12:12.498Z,14.32
2023-07-22T22:14:40.346Z,14.29
2023-07-22T22:17:08.243Z,14.26
2023-07-22T22:19:36.023Z,14.28
2023-07-22T22:22:03.802Z,14.26
2023-07-22T22:24:33.182Z,14.26
2023-07-22T22:27:02.463Z,14.21
2023-07-22T22:29:30.497Z,14.19
2023-07-22T22:31:58.290Z,14.20
2023-07-22T22:34:26.116Z,14.20
2023-07-22T22:36:53.924Z,14.23
2023-07-22T22:39:21.718Z,14.25
2023-07-22T22:41:49.550Z,14.22
2023-07-22T22:44:18.686Z,14.22
2023-07-22T22:46:48.402Z,14.19
2023-07-22T22:49:16.326Z,14.19
2023-07-22T22:51:44.097Z,14.20
2023-07-22T22:54:11.963Z,14.26
2023-07-22T22:56:39.787Z,14.30
2023-07-22T22:59:10.519Z,14.29
2023-07-22T23:01:40.296Z,14.36
2023-07-22T23:04:08.115Z,14.36
2023-07-22T23:06:35.900Z,14.35
2023-07-22T23:09:03.770Z,14.34
2023-07-22T23:11:31.579Z,14.41
2023-07-22T23:13:59.999Z,14.42
2023-07-22T23:16:28.113Z,14.43
2023-07-22T23:18:57.310Z,14.44
2023-07-22T23:21:25.069Z,14.53
2023-07-22T23:23:52.933Z,14.59
2023-07-22T23:26:20.739Z,14.53
2023-07-22T23:28:48.545Z,14.55
2023-07-22T23:31:16.676Z,14.57
2023-07-22T23:33:44.506Z,14.55
2023-07-22T23:36:13.704Z,14.62
2023-07-22T23:38:41.491Z,14.65
2023-07-22T23:41:09.755Z,14.60
2023-07-22T23:43:37.669Z,14.62
2023-07-22T23:46:05.438Z,14.62
2023-07-22T23:48:33.859Z,14.66
2023-07-22T23:51:01.652Z,14.68
2023-07-22T23:53:30.780Z,14.74
2023-07-22T23:55:58.665Z,14.72
2023-07-22T23:58:26.436Z,14.75
